Time;durP1;ratioP1;P1;durP2;ratioP2;P2;SDS_P1;SDS_P2;PMS_P1;PMS_P2;Temp;Humidity;BMP_temperature;BMP_pressure;BME280_temperature;BME280_humidity;BME280_pressure;Samples;Min_cycle;Max_cycle;Signal;HPM_P1;HPM_P2
2022/02/25 00:00:41;;;;;;;0.40;0.40;;;4.20;94.90;;;;;;4995233;28;20168;-69
2022/02/25 00:03:07;;;;;;;0.30;0.30;;;4.10;95.50;;;;;;4996737;28;20195;-69
2022/02/25 00:05:34;;;;;;;0.40;0.40;;;4.10;95.80;;;;;;4996806;28;20190;-69
2022/02/25 00:08:00;;;;;;;0.40;0.40;;;4.20;95.40;;;;;;4996519;28;20203;-69
2022/02/25 00:10:26;;;;;;;0.30;0.30;;;4.10;94.80;;;;;;4996504;28;20339;-69
2022/02/25 00:12:52;;;;;;;0.40;0.40;;;4.00;95.10;;;;;;4996193;28;20211;-69
2022/02/25 00:15:18;;;;;;;0.30;0.30;;;4.10;95.50;;;;;;4996379;28;20258;-69
2022/02/25 00:17:44;;;;;;;0.40;0.40;;;4.20;95.80;;;;;;4996419;28;20593;-69
2022/02/25 00:20:11;;;;;;;0.33;0.33;;;4.10;96.10;;;;;;4996181;28;20806;-69
2022/02/25 00:22:40;;;;;;;0.30;0.30;;;4.10;96.60;;;;;;4996288;28;20434;-69
2022/02/25 00:25:08;;;;;;;0.40;0.40;;;4.10;96.10;;;;;;4996273;28;20610;-69
2022/02/25 00:27:38;;;;;;;0.40;0.40;;;4.00;96.00;;;;;;4996309;28;20258;-69
2022/02/25 00:30:04;;;;;;;0.30;0.30;;;4.10;96.40;;;;;;4995948;28;20196;-69
2022/02/25 00:32:29;;;;;;;0.40;0.40;;;3.90;96.50;;;;;;4995839;28;20217;-69
2022/02/25 00:34:56;;;;;;;0.30;0.30;;;4.00;96.80;;;;;;4996143;28;20179;-69
2022/02/25 00:37:21;;;;;;;0.40;0.40;;;4.00;96.80;;;;;;4995852;28;20175;-69
2022/02/25 00:39:47;;;;;;;0.40;0.40;;;3.70;96.30;;;;;;4996076;28;20229;-69
2022/02/25 00:42:13;;;;;;;0.30;0.30;;;3.50;96.60;;;;;;4995749;28;20190;-69
2022/02/25 00:44:39;;;;;;;0.40;0.40;;;3.50;97.40;;;;;;4994667;28;20213;-69
2022/02/25 00:47:05;;;;;;;0.30;0.30;;;3.60;97.30;;;;;;4995864;28;20540;-69
2022/02/25 00:49:31;;;;;;;0.30;0.30;;;3.70;96.90;;;;;;4995789;28;20178;-69
2022/02/25 00:51:56;;;;;;;0.30;0.30;;;3.70;97.00;;;;;;4995515;28;20258;-69
2022/02/25 00:54:22;;;;;;;0.30;0.30;;;3.80;96.90;;;;;;4978220;28;20404;-69
2022/02/25 00:56:48;;;;;;;0.30;0.30;;;3.80;96.30;;;;;;4995768;28;20175;-69
2022/02/25 00:59:13;;;;;;;0.40;0.40;;;3.90;96.20;;;;;;4995977;28;20637;-69
2022/02/25 01:01:39;;;;;;;0.40;0.40;;;3.70;95.80;;;;;;4995429;28;20671;-70
2022/02/25 01:04:05;;;;;;;0.30;0.30;;;3.60;96.10;;;;;;4995494;28;20172;-69
2022/02/25 01:06:31;;;;;;;0.30;0.30;;;3.60;96.30;;;;;;4995650;28;20544;-69
2022/02/25 01:08:56;;;;;;;0.37;0.37;;;3.60;96.50;;;;;;4995470;28;20179;-69
2022/02/25 01:11:22;;;;;;;0.30;0.30;;;3.60;96.40;;;;;;4994684;28;20167;-69
2022/02/25 01:13:47;;;;;;;0.30;0.30;;;3.60;96.30;;;;;;4995601;28;20206;-69
2022/02/25 01:16:13;;;;;;;0.30;0.30;;;3.40;96.30;;;;;;4995275;28;20187;-69
2022/02/25 01:18:39;;;;;;;0.30;0.30;;;3.30;96.00;;;;;;4995279;28;20173;-69
2022/02/25 01:21:06;;;;;;;0.30;0.30;;;3.20;96.50;;;;;;4995074;28;20175;-69
2022/02/25 01:23:33;;;;;;;0.30;0.30;;;3.50;96.60;;;;;;4995119;28;20175;-69
2022/02/25 01:25:58;;;;;;;0.40;0.40;;;3.80;96.50;;;;;;4994963;28;20328;-69
2022/02/25 01:28:24;;;;;;;0.40;0.40;;;3.80;95.50;;;;;;4995041;28;20186;-69
2022/02/25 01:30:50;;;;;;;0.40;0.40;;;3.90;95.20;;;;;;4995027;28;20251;-69
2022/02/25 01:33:16;;;;;;;0.40;0.40;;;3.80;95.10;;;;;;4994754;28;20612;-69
2022/02/25 01:35:42;;;;;;;0.40;0.40;;;3.80;95.20;;;;;;4995185;28;20254;-69
2022/02/25 01:38:07;;;;;;;0.37;0.37;;;3.90;95.50;;;;;;4995114;28;20205;-69
2022/02/25 01:40:33;;;;;;;0.40;0.40;;;4.00;94.80;;;;;;4994591;28;20189;-69
2022/02/25 01:42:59;;;;;;;0.40;0.40;;;3.80;94.60;;;;;;4994740;28;20198;-69
2022/02/25 01:45:24;;;;;;;0.30;0.30;;;3.90;95.00;;;;;;4995068;28;20271;-69
2022/02/25 01:47:50;;;;;;;0.40;0.40;;;4.00;95.00;;;;;;4994617;28;20258;-69
2022/02/25 01:50:16;;;;;;;0.40;0.40;;;3.90;94.80;;;;;;4994694;28;20417;-69
2022/02/25 01:52:58;;;;;;;0.40;0.40;;;3.80;94.50;;;;;;4994671;28;20206;-69
2022/02/25 01:55:23;;;;;;;0.35;0.35;;;4.00;94.90;;;;;;4995010;28;20399;-69
2022/02/25 01:57:49;;;;;;;0.30;0.30;;;3.70;94.00;;;;;;4994566;28;20201;-69
2022/02/25 02:00:16;;;;;;;0.30;0.30;;;3.80;94.10;;;;;;4994522;28;20179;-69
2022/02/25 02:02:42;;;;;;;0.40;0.40;;;3.70;94.40;;;;;;4994531;28;20192;-69
2022/02/25 02:05:08;;;;;;;0.30;0.30;;;3.30;94.30;;;;;;4994444;28;20185;-69
2022/02/25 02:07:34;;;;;;;0.30;0.30;;;3.20;94.50;;;;;;4994459;28;20463;-69
2022/02/25 02:10:00;;;;;;;0.30;0.30;;;3.20;95.00;;;;;;4994164;28;20455;-69
2022/02/25 02:12:25;;;;;;;0.37;0.37;;;2.90;95.80;;;;;;4994206;28;20292;-69
2022/02/25 02:14:51;;;;;;;0.40;0.40;;;3.00;96.20;;;;;;4994388;28;20404;-69
2022/02/25 02:17:17;;;;;;;0.30;0.30;;;3.10;95.60;;;;;;4994381;28;20456;-69
2022/02/25 02:19:43;;;;;;;0.40;0.40;;;3.00;95.60;;;;;;4994388;28;20250;-69
2022/02/25 02:22:09;;;;;;;0.40;0.40;;;2.50;95.60;;;;;;4993898;28;20232;-69
2022/02/25 02:24:34;;;;;;;0.30;0.30;;;2.60;95.90;;;;;;4993499;28;20202;-69
2022/02/25 02:27:00;;;;;;;0.40;0.40;;;2.70;95.80;;;;;;4994365;28;20675;-69
2022/02/25 02:29:26;;;;;;;0.30;0.30;;;2.90;95.90;;;;;;4994603;28;20655;-69
2022/02/25 02:31:52;;;;;;;0.30;0.30;;;2.90;95.80;;;;;;4994008;28;20198;-69
2022/02/25 02:34:18;;;;;;;0.35;0.35;;;2.90;95.50;;;;;;4994063;28;20624;-70
2022/02/25 02:36:45;;;;;;;0.30;0.30;;;3.00;95.70;;;;;;4994192;28;20636;-69
2022/02/25 02:39:11;;;;;;;0.30;0.30;;;3.10;95.70;;;;;;4994021;28;20167;-69
2022/02/25 02:41:38;;;;;;;0.30;0.30;;;2.70;95.30;;;;;;4993990;28;20229;-69
2022/02/25 02:44:04;;;;;;;0.40;0.40;;;2.80;95.90;;;;;;4994122;28;20320;-69
2022/02/25 02:46:30;;;;;;;0.40;0.40;;;2.90;96.10;;;;;;4994099;28;20259;-69
2022/02/25 02:48:56;;;;;;;0.40;0.40;;;3.10;95.70;;;;;;4976696;28;20747;-69
2022/02/25 02:51:22;;;;;;;0.30;0.30;;;3.30;95.60;;;;;;4993661;28;20418;-69
2022/02/25 02:53:47;;;;;;;0.30;0.30;;;3.30;95.30;;;;;;4993850;28;20200;-69
2022/02/25 02:56:13;;;;;;;0.30;0.30;;;3.30;95.60;;;;;;4994063;28;20172;-69
2022/02/25 02:58:39;;;;;;;0.40;0.40;;;3.50;95.20;;;;;;4993961;28;20178;-69
2022/02/25 03:01:05;;;;;;;0.30;0.30;;;3.40;94.40;;;;;;4993680;28;20188;-69
2022/02/25 03:03:31;;;;;;;0.40;0.40;;;3.60;94.30;;;;;;4993786;28;20425;-69
2022/02/25 03:05:57;;;;;;;0.30;0.30;;;3.70;94.00;;;;;;4993958;28;20541;-69
2022/02/25 03:08:23;;;;;;;0.30;0.30;;;3.60;93.70;;;;;;4993998;28;20178;-69
2022/02/25 03:10:49;;;;;;;0.40;0.40;;;3.40;93.70;;;;;;4976138;28;20425;-69
2022/02/25 03:13:15;;;;;;;0.32;0.32;;;3.20;93.50;;;;;;4993533;28;20294;-69
2022/02/25 03:15:43;;;;;;;0.40;0.40;;;3.20;93.90;;;;;;4993753;28;20184;-69
2022/02/25 03:18:09;;;;;;;0.40;0.40;;;3.30;94.20;;;;;;4976467;28;20182;-69
2022/02/25 03:20:35;;;;;;;0.33;0.33;;;3.30;94.10;;;;;;4993458;28;20175;-69
2022/02/25 03:23:00;;;;;;;0.30;0.30;;;3.50;94.10;;;;;;4993815;28;20191;-69
2022/02/25 03:25:27;;;;;;;0.40;0.40;;;3.60;94.50;;;;;;4993684;28;20174;-69
2022/02/25 03:27:53;;;;;;;0.30;0.30;;;3.20;94.50;;;;;;4976292;28;20178;-69
2022/02/25 03:30:19;;;;;;;0.40;0.40;;;3.20;94.30;;;;;;4993535;28;20237;-69
2022/02/25 03:32:45;;;;;;;0.30;0.30;;;3.30;94.10;;;;;;4993400;28;20203;-69
2022/02/25 03:35:14;;;;;;;0.30;0.30;;;3.30;94.40;;;;;;4994938;28;20409;-69
2022/02/25 03:37:39;;;;;;;0.32;0.32;;;3.20;93.50;;;;;;4997024;28;20190;-69
2022/02/25 03:40:07;;;;;;;0.30;0.30;;;3.30;93.80;;;;;;4996917;28;20174;-69
2022/02/25 03:42:33;;;;;;;0.30;0.30;;;3.40;94.20;;;;;;4996959;28;20202;-69
2022/02/25 03:44:59;;;;;;;0.40;0.40;;;3.30;94.30;;;;;;4996984;28;20216;-69
2022/02/25 03:47:25;;;;;;;0.40;0.40;;;3.30;94.10;;;;;;4996971;28;20178;-69
2022/02/25 03:49:50;;;;;;;0.40;0.40;;;3.20;93.10;;;;;;4997267;28;20268;-69
2022/02/25 03:52:16;;;;;;;0.40;0.40;;;3.10;93.00;;;;;;4996578;28;20199;-69
2022/02/25 03:54:42;;;;;;;0.40;0.40;;;3.30;93.70;;;;;;4996871;28;20174;-69
2022/02/25 03:57:07;;;;;;;0.40;0.40;;;3.30;93.80;;;;;;4996825;28;20182;-69
2022/02/25 03:59:33;;;;;;;0.40;0.40;;;3.20;93.40;;;;;;4996909;28;20220;-69
2022/02/25 04:01:58;;;;;;;0.40;0.40;;;3.20;93.40;;;;;;4996516;28;20194;-69
2022/02/25 04:04:28;;;;;;;0.30;0.30;;;3.10;93.20;;;;;;4996843;28;20254;-69
2022/02/25 04:06:53;;;;;;;0.40;0.40;;;3.10;93.10;;;;;;4996789;28;20568;-69
2022/02/25 04:09:19;;;;;;;0.37;0.37;;;3.00;93.60;;;;;;4996589;28;20179;-69
2022/02/25 04:11:46;;;;;;;0.40;0.40;;;2.90;93.30;;;;;;4996204;28;20203;-69
2022/02/25 04:14:14;;;;;;;0.40;0.40;;;3.00;93.20;;;;;;4996592;28;20164;-69
2022/02/25 04:16:40;;;;;;;0.40;0.40;;;2.90;93.20;;;;;;4996504;28;20225;-69
2022/02/25 04:19:06;;;;;;;0.30;0.30;;;2.90;93.80;;;;;;4996499;28;20201;-69
2022/02/25 04:21:31;;;;;;;0.40;0.40;;;3.00;94.00;;;;;;4996140;28;20210;-69
2022/02/25 04:23:57;;;;;;;0.40;0.40;;;3.00;93.80;;;;;;4996277;28;20675;-69
2022/02/25 04:26:23;;;;;;;0.30;0.30;;;3.10;94.00;;;;;;4996313;28;20179;-69
2022/02/25 04:28:50;;;;;;;0.40;0.40;;;3.00;94.10;;;;;;4996332;28;20409;-69
2022/02/25 04:31:16;;;;;;;0.40;0.40;;;3.00;94.10;;;;;;4995841;28;20409;-69
2022/02/25 04:33:42;;;;;;;0.40;0.40;;;2.80;93.80;;;;;;4996037;28;20208;-69
2022/02/25 04:36:07;;;;;;;0.30;0.30;;;2.70;94.50;;;;;;4995980;28;20624;-69
2022/02/25 04:38:33;;;;;;;0.30;0.30;;;2.80;95.10;;;;;;4996247;28;20182;-69
2022/02/25 04:41:02;;;;;;;0.40;0.40;;;2.90;95.50;;;;;;4978246;28;20184;-69
2022/02/25 04:43:32;;;;;;;0.30;0.30;;;3.00;95.60;;;;;;4995771;28;20201;-69
2022/02/25 04:45:58;;;;;;;0.30;0.30;;;3.10;95.50;;;;;;4995582;28;20565;-69
2022/02/25 04:48:25;;;;;;;0.30;0.30;;;3.00;94.70;;;;;;4995606;28;20182;-69
2022/02/25 04:50:51;;;;;;;0.30;0.30;;;3.00;94.30;;;;;;4995497;28;20176;-69
2022/02/25 04:53:17;;;;;;;0.30;0.30;;;3.00;94.10;;;;;;4995580;28;20751;-69
2022/02/25 04:55:46;;;;;;;0.37;0.37;;;2.90;93.90;;;;;;4995887;28;20177;-69
2022/02/25 04:58:15;;;;;;;0.40;0.40;;;2.80;94.00;;;;;;4995757;28;20200;-69
2022/02/25 05:00:42;;;;;;;0.40;0.40;;;2.50;94.40;;;;;;4995775;28;20169;-69
2022/02/25 05:03:08;;;;;;;0.30;0.30;;;2.40;94.70;;;;;;4995473;28;20193;-69
2022/02/25 05:05:34;;;;;;;0.30;0.30;;;2.30;94.80;;;;;;4978045;28;20182;-69
2022/02/25 05:07:59;;;;;;;0.40;0.40;;;2.10;94.70;;;;;;4995493;28;20702;-69
2022/02/25 05:10:27;;;;;;;0.30;0.30;;;2.00;95.00;;;;;;4995389;28;20673;-69
2022/02/25 05:12:52;;;;;;;0.30;0.30;;;2.00;95.30;;;;;;4995054;28;20212;-69
2022/02/25 05:20:48;;;;;;;0.30;0.30;;;1.70;95.70;;;;;;4995484;28;20187;-69
2022/02/25 05:23:14;;;;;;;0.30;0.30;;;1.70;96.00;;;;;;4995269;28;20562;-69
2022/02/25 05:25:40;;;;;;;0.30;0.30;;;1.70;96.10;;;;;;4995316;28;20173;-69
2022/02/25 05:28:06;;;;;;;0.30;0.30;;;1.60;96.10;;;;;;4995107;28;20176;-69
2022/02/25 05:30:31;;;;;;;0.30;0.30;;;1.60;96.20;;;;;;4995102;28;20176;-69
2022/02/25 05:32:57;;;;;;;0.40;0.40;;;1.50;96.30;;;;;;4994849;28;20692;-69
2022/02/25 05:35:24;;;;;;;0.30;0.30;;;1.40;96.30;;;;;;4994861;28;20807;-69
2022/02/25 05:37:50;;;;;;;0.40;0.40;;;1.40;96.40;;;;;;4994896;28;20415;-69
2022/02/25 05:40:19;;;;;;;0.30;0.30;;;1.40;96.40;;;;;;4977222;28;20176;-69
2022/02/25 05:42:45;;;;;;;0.35;0.35;;;1.40;96.40;;;;;;4994833;28;20565;-69
2022/02/25 05:45:12;;;;;;;0.30;0.30;;;1.30;96.50;;;;;;4977381;28;20187;-69
2022/02/25 05:47:39;;;;;;;0.30;0.30;;;1.30;96.50;;;;;;4994911;28;20177;-69
2022/02/25 05:50:07;;;;;;;0.40;0.40;;;1.30;96.50;;;;;;4993372;28;20212;-69
2022/02/25 05:52:33;;;;;;;0.40;0.40;;;1.20;96.40;;;;;;4994635;28;20540;-69
2022/02/25 05:54:59;;;;;;;0.40;0.40;;;1.20;96.30;;;;;;4994588;28;20573;-69
2022/02/25 05:57:25;;;;;;;0.30;0.30;;;1.20;96.40;;;;;;4994419;28;20219;-69
2022/02/25 05:59:51;;;;;;;0.35;0.35;;;1.10;96.60;;;;;;4993849;28;20172;-69
2022/02/25 06:02:17;;;;;;;0.40;0.40;;;1.10;96.70;;;;;;4994251;28;20191;-69
2022/02/25 06:04:42;;;;;;;0.30;0.30;;;1.10;96.80;;;;;;4994482;28;20173;-69
2022/02/25 06:07:08;;;;;;;0.30;0.30;;;1.10;96.80;;;;;;4994833;28;20176;-69
2022/02/25 06:09:34;;;;;;;0.40;0.40;;;1.00;96.90;;;;;;4994397;28;20502;-69
2022/02/25 06:11:59;;;;;;;0.40;0.40;;;0.90;97.40;;;;;;4993907;28;20621;-69
2022/02/25 06:14:25;;;;;;;0.40;0.40;;;0.60;98.20;;;;;;4994346;28;20214;-69
2022/02/25 06:16:51;;;;;;;0.30;0.30;;;0.80;98.70;;;;;;4977005;28;20783;-69
2022/02/25 06:19:16;;;;;;;0.40;0.40;;;1.50;99.90;;;;;;4994497;28;20173;-69
2022/02/25 06:21:42;;;;;;;0.30;0.30;;;1.80;99.90;;;;;;4994219;28;20189;-71
2022/02/25 06:24:08;;;;;;;0.30;0.30;;;1.50;98.20;;;;;;4994197;28;20184;-71
2022/02/25 06:26:33;;;;;;;0.40;0.40;;;1.50;98.60;;;;;;4994117;28;20177;-72
2022/02/25 06:29:00;;;;;;;0.30;0.30;;;1.60;98.30;;;;;;4994031;28;20251;-70
2022/02/25 06:31:25;;;;;;;0.40;0.40;;;1.70;97.90;;;;;;4993440;28;20650;-70
2022/02/25 06:33:51;;;;;;;0.40;0.40;;;1.70;97.80;;;;;;4992534;28;20291;-70
2022/02/25 06:36:17;;;;;;;0.40;0.40;;;1.90;97.50;;;;;;4992900;28;20267;-69
2022/02/25 06:38:43;;;;;;;0.40;0.40;;;2.10;97.30;;;;;;4993990;28;20530;-70
2022/02/25 06:41:08;;;;;;;0.30;0.30;;;2.40;97.00;;;;;;4993978;28;20193;-69
2022/02/25 06:46:18;;;;;;;0.30;0.30;;;2.70;96.40;;;;;;4993774;28;20200;-69
2022/02/25 06:48:44;;;;;;;0.30;0.30;;;2.70;96.00;;;;;;4992714;28;20185;-69
2022/02/25 06:51:10;;;;;;;0.30;0.30;;;2.70;95.70;;;;;;4993821;28;20178;-70
2022/02/25 06:53:36;;;;;;;0.35;0.35;;;2.80;95.60;;;;;;4992363;28;20209;-70
2022/02/25 06:56:05;;;;;;;0.30;0.30;;;2.70;95.30;;;;;;4993953;28;20222;-71
2022/02/25 06:58:31;;;;;;;0.40;0.40;;;2.70;95.20;;;;;;4993670;28;20167;-71
2022/02/25 07:00:57;;;;;;;0.40;0.40;;;2.80;95.40;;;;;;4993751;28;20171;-71
2022/02/25 07:03:22;;;;;;;0.30;0.30;;;2.80;94.90;;;;;;4993921;28;20194;-71
2022/02/25 07:05:48;;;;;;;0.30;0.30;;;2.90;95.00;;;;;;4993849;28;20185;-71
2022/02/25 07:08:14;;;;;;;0.30;0.30;;;3.00;94.20;;;;;;4993735;28;20178;-71
2022/02/25 07:10:41;;;;;;;0.30;0.30;;;3.00;93.90;;;;;;4996088;28;20196;-71
2022/02/25 07:13:09;;;;;;;0.30;0.30;;;3.10;94.20;;;;;;4997340;28;20211;-70
2022/02/25 07:15:35;;;;;;;0.30;0.30;;;3.30;94.40;;;;;;4997703;28;20178;-71
2022/02/25 07:18:02;;;;;;;0.40;0.40;;;3.40;93.80;;;;;;4980138;28;20182;-70
2022/02/25 07:20:28;;;;;;;0.30;0.30;;;3.50;93.50;;;;;;4997518;28;20186;-71
2022/02/25 07:22:53;;;;;;;0.30;0.30;;;3.60;93.00;;;;;;4997382;28;20199;-71
2022/02/25 07:25:20;;;;;;;0.30;0.30;;;3.60;92.80;;;;;;4997251;28;20423;-71
2022/02/25 07:27:46;;;;;;;0.40;0.40;;;3.70;92.80;;;;;;4997448;28;20186;-71
2022/02/25 07:30:13;;;;;;;0.35;0.35;;;3.70;92.20;;;;;;4997232;28;20648;-71
2022/02/25 07:32:39;;;;;;;0.30;0.30;;;3.70;92.10;;;;;;4979748;28;20361;-71
2022/02/25 07:35:07;;;;;;;0.40;0.40;;;3.70;91.80;;;;;;4997341;28;20190;-71
2022/02/25 07:37:34;;;;;;;0.32;0.32;;;3.90;92.20;;;;;;4979730;28;20202;-71
2022/02/25 07:39:59;;;;;;;0.40;0.40;;;4.10;91.80;;;;;;4997010;28;20180;-71
2022/02/25 07:42:25;;;;;;;0.40;0.40;;;4.20;91.40;;;;;;4997049;28;20202;-71
2022/02/25 07:44:51;;;;;;;0.30;0.30;;;4.10;90.90;;;;;;4996961;28;20175;-71
2022/02/25 07:47:19;;;;;;;0.30;0.30;;;3.80;90.40;;;;;;4997120;28;20824;-71
2022/02/25 07:49:46;;;;;;;0.40;0.40;;;3.90;90.80;;;;;;4997325;28;20171;-71
2022/02/25 07:52:12;;;;;;;0.40;0.40;;;4.10;90.80;;;;;;4996616;28;20253;-71
2022/02/25 07:54:37;;;;;;;0.40;0.40;;;4.30;90.90;;;;;;4996931;28;20203;-71
2022/02/25 07:57:04;;;;;;;0.40;0.40;;;4.60;90.70;;;;;;4996959;28;20407;-71
2022/02/25 07:59:29;;;;;;;0.38;0.38;;;4.80;90.00;;;;;;4996809;28;20250;-71
2022/02/25 08:01:55;;;;;;;0.40;0.40;;;5.10;88.30;;;;;;4996490;28;20275;-71
2022/02/25 08:04:21;;;;;;;0.33;0.33;;;5.00;85.90;;;;;;4996813;28;20175;-71
2022/02/25 08:06:46;;;;;;;0.40;0.40;;;4.70;86.00;;;;;;4996690;28;20168;-71
2022/02/25 08:09:12;;;;;;;0.40;0.40;;;4.90;88.00;;;;;;4996713;28;20173;-71
2022/02/25 08:11:38;;;;;;;0.40;0.40;;;5.70;84.60;;;;;;4996252;28;20188;-71
2022/02/25 08:14:04;;;;;;;0.40;0.40;;;6.10;82.00;;;;;;4996444;28;20640;-71
2022/02/25 08:16:30;;;;;;;0.40;0.40;;;6.90;81.00;;;;;;4996795;28;20251;-71
2022/02/25 08:18:55;;;;;;;0.40;0.40;;;7.10;76.30;;;;;;4996628;28;20222;-71
2022/02/25 08:21:21;;;;;;;0.40;0.40;;;6.90;77.00;;;;;;4995097;28;20252;-71
2022/02/25 08:23:47;;;;;;;0.40;0.40;;;6.80;77.40;;;;;;4996379;28;20307;-71
2022/02/25 08:26:13;;;;;;;0.40;0.40;;;7.10;78.30;;;;;;4996261;28;20180;-71
2022/02/25 08:28:38;;;;;;;0.40;0.40;;;8.00;75.50;;;;;;4996286;28;20415;-71
2022/02/25 08:31:11;;;;;;;0.40;0.40;;;9.00;71.70;;;;;;4995981;28;20418;-71
2022/02/25 08:33:39;;;;;;;0.35;0.35;;;9.50;67.80;;;;;;4996050;28;20216;-71
2022/02/25 08:36:06;;;;;;;0.40;0.40;;;9.70;65.30;;;;;;4996139;28;20541;-71
2022/02/25 08:38:32;;;;;;;0.40;0.40;;;9.50;64.80;;;;;;4996176;28;20174;-71
2022/02/25 08:40:58;;;;;;;0.40;0.40;;;8.30;65.40;;;;;;4995832;28;20239;-71
2022/02/25 08:43:24;;;;;;;0.40;0.40;;;8.20;69.60;;;;;;4995991;28;20226;-71
2022/02/25 08:45:50;;;;;;;0.40;0.40;;;8.90;66.50;;;;;;4995865;28;20221;-71
2022/02/25 08:48:16;;;;;;;0.40;0.40;;;8.80;62.90;;;;;;4995862;28;20627;-72
2022/02/25 08:50:43;;;;;;;0.60;0.60;;;8.10;63.00;;;;;;4995632;28;20182;-72
2022/02/25 08:53:08;;;;;;;0.40;0.40;;;8.20;65.70;;;;;;4995559;28;20576;-72
2022/02/25 08:55:34;;;;;;;0.40;0.40;;;8.30;66.60;;;;;;4995887;28;20205;-71
2022/02/25 08:58:01;;;;;;;0.40;0.40;;;8.30;65.30;;;;;;4996014;28;20400;-72
2022/02/25 09:00:27;;;;;;;0.40;0.40;;;8.50;65.90;;;;;;4995448;28;20403;-72
2022/02/25 09:02:53;;;;;;;0.30;0.30;;;10.20;62.70;;;;;;4995512;28;20200;-72
2022/02/25 09:05:23;;;;;;;0.30;0.30;;;12.20;56.80;;;;;;4995535;28;20407;-72
2022/02/25 09:07:50;;;;;;;0.30;0.30;;;12.60;53.70;;;;;;4995602;28;20200;-72
2022/02/25 09:10:17;;;;;;;0.35;0.35;;;12.80;51.30;;;;;;4995339;28;20173;-71
2022/02/25 09:12:44;;;;;;;0.30;0.30;;;12.70;51.40;;;;;;4995052;28;20295;-72
2022/02/25 09:15:12;;;;;;;0.30;0.30;;;12.10;51.40;;;;;;4995085;28;20179;-72
2022/02/25 09:17:38;;;;;;;0.32;0.32;;;11.50;52.00;;;;;;4995461;28;20186;-72
2022/02/25 09:20:09;;;;;;;0.50;0.50;;;10.60;53.30;;;;;;4995106;28;20172;-72
2022/02/25 09:22:36;;;;;;;0.30;0.30;;;11.00;53.90;;;;;;4995293;28;20192;-72
2022/02/25 09:25:03;;;;;;;0.30;0.30;;;11.30;52.70;;;;;;4995075;28;20172;-72
2022/02/25 09:27:29;;;;;;;0.30;0.30;;;11.00;52.30;;;;;;4994883;28;20176;-72
2022/02/25 09:29:55;;;;;;;0.30;0.30;;;11.70;53.90;;;;;;4994910;28;20255;-71
2022/02/25 09:32:21;;;;;;;0.30;0.30;;;13.00;50.80;;;;;;4994724;28;20224;-72
2022/02/25 09:34:47;;;;;;;0.30;0.30;;;12.20;48.20;;;;;;4994895;28;20609;-72
2022/02/25 09:37:13;;;;;;;0.30;0.30;;;11.70;51.50;;;;;;4994842;28;20404;-72
2022/02/25 09:39:39;;;;;;;0.30;0.30;;;11.80;49.70;;;;;;4994950;28;20176;-72
2022/02/25 09:42:07;;;;;;;0.30;0.30;;;12.20;51.60;;;;;;4994476;28;20193;-72
2022/02/25 09:44:34;;;;;;;0.40;0.40;;;12.60;51.20;;;;;;4994997;28;20172;-72
2022/02/25 09:47:01;;;;;;;0.30;0.30;;;12.60;51.90;;;;;;4994859;28;20168;-72
2022/02/25 09:49:27;;;;;;;0.40;0.40;;;12.70;48.90;;;;;;4994895;28;20688;-72
2022/02/25 09:51:55;;;;;;;0.30;0.30;;;12.30;49.00;;;;;;4994635;28;20599;-71
2022/02/25 09:54:20;;;;;;;0.30;0.30;;;12.70;48.90;;;;;;4994621;28;20644;-72
2022/02/25 09:56:48;;;;;;;0.30;0.30;;;13.00;48.10;;;;;;4994784;28;20436;-72
2022/02/25 09:59:16;;;;;;;1.55;1.45;;;13.40;47.40;;;;;;4994586;28;20173;-71
2022/02/25 10:01:42;;;;;;;0.30;0.30;;;13.70;46.50;;;;;;4994332;28;20203;-72
2022/02/25 10:04:15;;;;;;;0.30;0.30;;;14.00;47.00;;;;;;4994462;28;20422;-72
2022/02/25 10:06:42;;;;;;;0.30;0.30;;;14.60;45.80;;;;;;4993258;28;20897;-72
2022/02/25 10:09:31;;;;;;;0.30;0.30;;;16.10;43.70;;;;;;4994410;28;20494;-72
2022/02/25 10:12:10;;;;;;;0.30;0.30;;;16.70;40.60;;;;;;4993925;28;20474;-72
2022/02/25 10:14:38;;;;;;;0.30;0.30;;;17.20;41.10;;;;;;4994303;28;20423;-72
2022/02/25 10:17:14;;;;;;;0.53;0.50;;;16.20;39.40;;;;;;4994383;28;20406;-72
2022/02/25 10:19:58;;;;;;;0.40;0.40;;;16.20;40.60;;;;;;4994259;28;20408;-72
2022/02/25 10:22:24;;;;;;;0.30;0.30;;;17.10;39.90;;;;;;4994246;28;20435;-72
2022/02/25 10:25:02;;;;;;;0.30;0.30;;;17.30;38.60;;;;;;4994222;28;20480;-72
2022/02/25 10:27:34;;;;;;;0.40;0.40;;;17.70;38.40;;;;;;4994356;28;20445;-72
2022/02/25 10:30:06;;;;;;;0.30;0.30;;;17.90;37.20;;;;;;4994443;28;20482;-72
2022/02/25 10:32:36;;;;;;;0.30;0.30;;;16.80;37.00;;;;;;4993967;28;21042;-72
2022/02/25 10:35:22;;;;;;;0.30;0.30;;;16.60;38.10;;;;;;4994223;28;20756;-71
2022/02/25 10:37:54;;;;;;;0.33;0.33;;;17.20;37.20;;;;;;4994274;28;20417;-72
2022/02/25 10:40:20;;;;;;;0.40;0.40;;;17.70;37.00;;;;;;4994011;28;20415;-72
2022/02/25 10:42:46;;;;;;;0.30;0.30;;;16.70;38.00;;;;;;4994299;28;20427;-72
2022/02/25 10:45:12;;;;;;;0.40;0.40;;;15.80;39.10;;;;;;4995749;28;20399;-72
2022/02/25 10:47:43;;;;;;;0.30;0.30;;;14.80;40.30;;;;;;4998150;28;20274;-72
2022/02/25 10:50:15;;;;;;;0.30;0.30;;;14.50;42.30;;;;;;4997473;28;20538;-72
2022/02/25 10:52:46;;;;;;;0.30;0.30;;;14.30;42.30;;;;;;4998046;28;20875;-72
2022/02/25 10:55:18;;;;;;;0.30;0.30;;;13.80;43.90;;;;;;4998316;28;20462;-72
2022/02/25 10:57:44;;;;;;;0.30;0.30;;;13.20;44.50;;;;;;4996852;28;20414;-71
2022/02/25 11:00:11;;;;;;;0.30;0.30;;;13.70;44.40;;;;;;4995921;28;20412;-72
2022/02/25 11:02:39;;;;;;;0.60;0.60;;;14.30;43.30;;;;;;4996569;28;20445;-71
2022/02/25 11:05:16;;;;;;;0.30;0.30;;;14.00;41.50;;;;;;4997120;28;20411;-72
2022/02/25 11:07:49;;;;;;;0.30;0.30;;;13.00;43.30;;;;;;4998054;28;20176;-72
2022/02/25 11:10:16;;;;;;;0.38;0.38;;;12.00;44.70;;;;;;4997805;28;20184;-72
2022/02/25 11:12:44;;;;;;;0.30;0.30;;;10.40;45.20;;;;;;4996703;28;20606;-72
2022/02/25 11:15:16;;;;;;;0.40;0.40;;;9.50;48.30;;;;;;4998149;28;20249;-72
2022/02/25 11:17:44;;;;;;;0.40;0.40;;;8.40;52.90;;;;;;4997689;28;20165;-72
2022/02/25 11:20:10;;;;;;;0.40;0.40;;;8.10;53.70;;;;;;4997357;28;20644;-73
2022/02/25 11:22:41;;;;;;;0.30;0.30;;;7.90;54.80;;;;;;4996759;28;20203;-71
2022/02/25 11:25:12;;;;;;;0.30;0.30;;;7.00;55.10;;;;;;4997814;28;20572;-71
2022/02/25 11:27:38;;;;;;;0.40;0.40;;;7.00;56.60;;;;;;4997457;28;20189;-76
2022/02/25 11:30:11;;;;;;;0.30;0.30;;;7.30;56.40;;;;;;4997055;28;20184;-73
2022/02/25 11:32:53;;;;;;;0.30;0.30;;;7.40;57.20;;;;;;4997338;28;20283;-70
2022/02/25 11:35:21;;;;;;;0.38;0.38;;;8.00;55.70;;;;;;4997051;28;20175;-73
2022/02/25 11:37:51;;;;;;;0.40;0.40;;;8.30;55.10;;;;;;4997458;28;20165;-71
2022/02/25 11:40:50;;;;;;;0.30;0.30;;;8.50;54.10;;;;;;4996134;28;20179;-70
2022/02/25 11:43:17;;;;;;;0.40;0.40;;;8.80;52.40;;;;;;4996921;28;20684;-70
2022/02/25 11:45:53;;;;;;;0.30;0.30;;;8.20;51.60;;;;;;4994949;28;20233;-70
2022/02/25 11:48:36;;;;;;;0.30;0.30;;;8.20;53.90;;;;;;4996675;28;20164;-70
2022/02/25 11:51:01;;;;;;;0.30;0.30;;;8.60;53.50;;;;;;4996851;28;20606;-70
2022/02/25 11:53:30;;;;;;;0.30;0.30;;;9.40;54.30;;;;;;4996674;28;20222;-70
2022/02/25 11:56:19;;;;;;;0.40;0.40;;;9.60;52.10;;;;;;4996871;28;20214;-70
2022/02/25 11:58:49;;;;;;;0.30;0.30;;;9.40;49.80;;;;;;4996175;28;20174;-70
2022/02/25 12:01:20;;;;;;;0.40;0.40;;;8.90;50.50;;;;;;4995865;28;20179;-70
2022/02/25 12:04:08;;;;;;;0.40;0.40;;;8.60;52.20;;;;;;4996216;28;20180;-70
2022/02/25 12:06:58;;;;;;;0.30;0.30;;;8.60;52.10;;;;;;4995413;28;20182;-70
2022/02/25 12:09:46;;;;;;;0.40;0.40;;;8.50;52.00;;;;;;4996217;28;20170;-71
2022/02/25 12:12:23;;;;;;;0.40;0.40;;;8.40;53.20;;;;;;4996028;28;20301;-71
2022/02/25 12:15:12;;;;;;;0.30;0.30;;;8.30;52.70;;;;;;4996194;28;20166;-71
2022/02/25 12:17:46;;;;;;;0.40;0.40;;;8.50;52.10;;;;;;4996643;28;20185;-71
2022/02/25 12:20:16;;;;;;;0.30;0.30;;;8.90;52.80;;;;;;4996692;28;20241;-71
2022/02/25 12:23:15;;;;;;;0.40;0.40;;;9.00;52.80;;;;;;4996364;28;20635;-71
2022/02/25 12:25:41;;;;;;;0.40;0.40;;;9.00;52.90;;;;;;4979000;28;20605;-70
2022/02/25 12:28:31;;;;;;;0.30;0.30;;;8.40;52.90;;;;;;4996238;28;20257;-71
2022/02/25 12:31:15;;;;;;;0.30;0.30;;;8.40;53.50;;;;;;4995963;28;20670;-70
2022/02/25 12:33:44;;;;;;;0.30;0.30;;;8.30;53.70;;;;;;4996053;28;20530;-70
2022/02/25 12:36:22;;;;;;;0.40;0.40;;;8.40;54.00;;;;;;4996281;28;20537;-71
2022/02/25 12:39:08;;;;;;;0.30;0.30;;;8.40;52.90;;;;;;4996076;28;20227;-71
2022/02/25 12:41:37;;;;;;;0.30;0.30;;;8.40;54.50;;;;;;4995930;28;20226;-72
2022/02/25 12:44:09;;;;;;;0.30;0.30;;;8.40;53.80;;;;;;4995293;28;20174;-70
2022/02/25 12:46:38;;;;;;;0.40;0.40;;;8.40;53.50;;;;;;4996375;28;20178;-72
2022/02/25 12:49:06;;;;;;;0.40;0.40;;;8.20;54.40;;;;;;4996111;28;20172;-72
2022/02/25 12:51:31;;;;;;;0.40;0.40;;;8.10;54.60;;;;;;4995184;28;20552;-72
2022/02/25 12:54:00;;;;;;;0.30;0.30;;;8.00;54.70;;;;;;4995905;28;20280;-73
2022/02/25 12:56:34;;;;;;;0.30;0.30;;;8.00;53.40;;;;;;4995911;28;20164;-72
2022/02/25 12:59:11;;;;;;;0.40;0.40;;;7.50;54.50;;;;;;4995833;28;20178;-72
2022/02/25 13:01:39;;;;;;;0.35;0.35;;;7.80;54.60;;;;;;4995464;28;20230;-72
2022/02/25 13:04:10;;;;;;;0.40;0.40;;;8.00;54.20;;;;;;4995859;28;20226;-72
2022/02/25 13:06:38;;;;;;;0.30;0.30;;;8.40;55.10;;;;;;4995815;28;20531;-71